createdAt,value
2019-01-10T00:03:06.545Z,71.10
2019-01-10T00:09:50.508Z,70.50
2019-01-10T00:16:34.464Z,70.70
2019-01-10T00:23:18.520Z,70.80
2019-01-10T00:30:02.417Z,70.60
2019-01-10T00:36:46.381Z,70.20
2019-01-10T00:43:30.357Z,70.40
2019-01-10T00:50:16.475Z,70.80
2019-01-10T00:57:00.441Z,70.60
2019-01-10T01:03:44.521Z,71.30
2019-01-10T01:17:18.826Z,71.10
2019-01-10T01:24:09.489Z,70.70
2019-01-10T01:30:59.061Z,70.70
2019-01-10T01:37:48.913Z,70.00
2019-01-10T01:44:38.673Z,70.00
2019-01-10T01:51:28.225Z,69.80
2019-01-10T01:58:17.901Z,69.00
2019-01-10T02:05:08.397Z,69.30
2019-01-10T02:11:58.193Z,69.30
2019-01-10T02:18:47.813Z,69.70
2019-01-10T02:25:37.585Z,69.60
2019-01-10T02:32:27.331Z,69.80
2019-01-10T02:39:17.143Z,70.50
2019-01-10T02:46:06.984Z,71.10
2019-01-10T02:52:56.713Z,71.40
2019-01-10T02:59:46.463Z,71.70
2019-01-10T03:06:36.133Z,72.60
2019-01-10T03:13:25.798Z,72.30
2019-01-10T03:20:17.622Z,72.40
2019-01-10T03:27:07.205Z,71.80
2019-01-10T03:33:56.882Z,71.20
2019-01-10T03:40:46.706Z,71.20
2019-01-10T03:47:36.488Z,71.20
2019-01-10T03:54:26.347Z,71.20
2019-01-10T04:01:16.181Z,71.20
2019-01-10T04:08:05.802Z,71.60
2019-01-10T04:14:55.485Z,71.10
2019-01-10T04:21:45.093Z,71.00
2019-01-10T04:28:34.850Z,71.00
2019-01-10T04:35:24.637Z,71.00
2019-01-10T04:42:14.417Z,70.80
2019-01-10T04:49:04.223Z,70.60
2019-01-10T04:55:53.950Z,70.70
2019-01-10T05:02:43.745Z,70.70
2019-01-10T05:09:33.346Z,70.70
2019-01-10T05:16:23.116Z,71.00
2019-01-10T05:23:12.949Z,70.80
2019-01-10T05:30:02.757Z,70.30
2019-01-10T05:36:52.673Z,71.30
2019-01-10T05:43:43.113Z,71.20
2019-01-10T05:50:33.087Z,70.70
2019-01-10T05:57:23.017Z,70.40
2019-01-10T06:04:12.769Z,70.10
2019-01-10T06:11:03.440Z,70.10
2019-01-10T06:17:53.733Z,69.90
2019-01-10T06:24:43.525Z,69.90
2019-01-10T06:31:33.275Z,69.80
2019-01-10T06:38:23.075Z,69.40
2019-01-10T06:45:13.473Z,69.10
2019-01-10T06:52:03.349Z,69.70
2019-01-10T06:58:53.040Z,70.80
2019-01-10T07:05:42.679Z,71.50
2019-01-10T07:12:32.361Z,71.80
2019-01-10T07:19:32.550Z,72.10
2019-01-10T07:26:22.139Z,71.90
2019-01-10T07:33:12.561Z,72.70
2019-01-10T07:40:02.181Z,72.70
2019-01-10T07:46:51.920Z,72.70
2019-01-10T07:53:41.594Z,72.30
2019-01-10T08:00:31.468Z,72.10
2019-01-10T08:07:21.118Z,71.50
2019-01-10T08:14:05.337Z,71.20
2019-01-10T08:20:49.297Z,71.10
2019-01-10T08:27:33.269Z,70.30
2019-01-10T08:34:17.249Z,71.40
2019-01-10T08:41:01.200Z,70.70
2019-01-10T08:47:45.229Z,70.50
2019-01-10T08:54:29.299Z,70.10
2019-01-10T09:01:13.263Z,69.30
2019-01-10T09:07:57.225Z,67.10
2019-01-10T09:14:41.199Z,66.70
2019-01-10T09:21:25.193Z,66.60
2019-01-10T09:28:09.176Z,66.90
2019-01-10T09:34:53.154Z,67.60
2019-01-10T09:41:37.124Z,66.70
2019-01-10T09:48:21.095Z,67.00
2019-01-10T09:55:05.160Z,66.10
2019-01-10T10:01:49.114Z,66.70
2019-01-10T10:08:33.082Z,66.90
2019-01-10T10:15:18.172Z,66.60
2019-01-10T10:22:02.154Z,66.40
2019-01-10T10:28:46.157Z,67.50
2019-01-10T10:35:30.192Z,68.40
2019-01-10T10:42:15.636Z,67.80
2019-01-10T10:48:59.541Z,66.30
2019-01-10T10:55:43.467Z,66.30
2019-01-10T11:02:27.456Z,65.20
2019-01-10T11:09:11.391Z,65.30
2019-01-10T11:15:55.388Z,64.70
2019-01-10T11:22:39.302Z,65.30
2019-01-10T11:29:23.247Z,65.90
2019-01-10T11:36:07.189Z,65.00
2019-01-10T11:42:51.186Z,65.70
2019-01-10T11:49:35.111Z,65.00
2019-01-10T11:56:19.050Z,64.80
2019-01-10T12:03:05.780Z,64.30
2019-01-10T12:09:49.722Z,64.00
2019-01-10T12:16:33.654Z,64.00
2019-01-10T12:23:17.654Z,63.50
2019-01-10T12:30:01.614Z,62.80
2019-01-10T12:36:45.540Z,61.90
2019-01-10T12:43:29.465Z,61.60
2019-01-10T12:50:16.385Z,60.50
2019-01-10T12:57:00.822Z,60.50
2019-01-10T13:03:44.761Z,59.00
2019-01-10T13:10:29.081Z,57.90
2019-01-10T13:17:14.689Z,58.30
2019-01-10T13:23:58.972Z,58.30
2019-01-10T13:30:44.274Z,59.20
2019-01-10T13:37:28.475Z,58.90
2019-01-10T13:44:13.010Z,58.80
2019-01-10T13:50:58.041Z,58.90
2019-01-10T13:57:42.021Z,59.10
2019-01-10T14:04:26.327Z,59.00
2019-01-10T14:11:10.511Z,60.00
2019-01-10T14:17:55.152Z,60.00
2019-01-10T14:24:39.101Z,60.00
2019-01-10T14:31:23.057Z,59.60
2019-01-10T14:38:07.074Z,60.10
2019-01-10T14:44:51.028Z,60.10
2019-01-10T14:51:34.998Z,60.40
2019-01-10T14:58:18.933Z,60.30
2019-01-10T15:05:02.877Z,60.00
2019-01-10T15:11:47.303Z,60.00
2019-01-10T15:18:30.766Z,60.00
2019-01-10T15:25:14.685Z,58.80
2019-01-10T15:31:58.613Z,57.80
2019-01-10T15:38:42.545Z,58.00
2019-01-10T15:45:26.468Z,58.00
2019-01-10T15:52:10.409Z,58.30
2019-01-10T15:58:54.333Z,57.20
2019-01-10T16:05:38.249Z,58.00
2019-01-10T16:12:22.234Z,57.90
2019-01-10T16:19:06.169Z,58.20
2019-01-10T16:25:50.237Z,57.40
2019-01-10T16:32:34.170Z,58.30
2019-01-10T16:39:18.099Z,58.20
2019-01-10T16:46:02.048Z,58.40
2019-01-10T16:52:46.034Z,58.40
2019-01-10T16:59:29.957Z,58.90
2019-01-10T17:06:14.573Z,58.50
2019-01-10T17:12:59.201Z,57.50
2019-01-10T17:19:43.427Z,59.00
2019-01-10T17:26:28.009Z,57.00
2019-01-10T17:33:12.366Z,55.70
2019-01-10T17:39:56.354Z,55.90
2019-01-10T17:46:40.269Z,56.40
2019-01-10T17:53:24.273Z,57.20
2019-01-10T18:00:12.520Z,56.20
2019-01-10T18:06:56.473Z,55.80
2019-01-10T18:13:40.911Z,56.40
2019-01-10T18:20:29.738Z,56.60
2019-01-10T18:27:14.596Z,56.90
2019-01-10T18:33:58.510Z,57.30
2019-01-10T18:40:42.873Z,56.60
2019-01-10T18:47:26.797Z,55.90
2019-01-10T18:54:10.731Z,56.70
2019-01-10T19:00:55.417Z,56.70
2019-01-10T19:07:39.882Z,55.40
2019-01-10T19:14:24.192Z,56.40
2019-01-10T19:21:09.033Z,55.30
2019-01-10T19:27:54.412Z,55.90
2019-01-10T19:34:38.321Z,55.50
2019-01-10T19:41:22.749Z,55.60
2019-01-10T19:48:09.751Z,55.40
2019-01-10T19:54:51.465Z,55.50
2019-01-10T20:01:37.739Z,55.00
2019-01-10T20:08:20.365Z,57.00
2019-01-10T20:15:04.929Z,58.40
2019-01-10T20:21:48.843Z,58.60
2019-01-10T20:28:34.013Z,59.90
2019-01-10T20:35:18.416Z,59.40
2019-01-10T20:42:02.454Z,59.00
2019-01-10T20:48:46.697Z,59.60
2019-01-10T20:55:31.042Z,59.40
2019-01-10T21:02:15.665Z,59.00
2019-01-10T21:08:59.603Z,58.60
2019-01-10T21:15:43.571Z,58.90
2019-01-10T21:22:27.509Z,58.90
2019-01-10T21:29:21.929Z,58.60
2019-01-10T21:36:05.861Z,58.60
2019-01-10T21:42:50.227Z,58.40
2019-01-10T21:49:34.161Z,58.40
2019-01-10T21:56:18.093Z,58.40
2019-01-10T22:03:02.516Z,58.60
2019-01-10T22:09:46.472Z,59.80
2019-01-10T22:16:30.412Z,59.90
2019-01-10T22:23:14.352Z,60.50
2019-01-10T22:29:58.304Z,61.60
2019-01-10T22:36:42.232Z,62.70
2019-01-10T22:43:26.180Z,63.90
2019-01-10T22:50:11.851Z,65.00
2019-01-10T22:56:55.829Z,65.10
2019-01-10T23:03:41.225Z,64.90
2019-01-10T23:10:25.224Z,65.40
2019-01-10T23:17:09.245Z,65.10
2019-01-10T23:23:59.682Z,64.60
2019-01-10T23:30:48.004Z,63.50
2019-01-10T23:37:31.994Z,62.60
2019-01-10T23:44:15.968Z,62.20
2019-01-10T23:50:59.913Z,63.20
2019-01-10T23:57:43.886Z,62.90
